Lincolnwood, Illinois
Current Conditions -  °F | °C
As of 9:06 AM on Friday 19 Dec 2014 (Local Time) from KORD Reporting Station
Overcast Overcast  
Wind Chill: 21°   Ceiling: 2400
Heat Index: 28°   Visibility: 10mi
Dew Point: 21°   Wind: 7mph
Humidity: 75%   Direction: 350°N
Pressure: 30.3"   Gusts: NA
Location:  42.01°N, 87.73°W
Report Text: KORD 191506Z 35006KT 10SM OVC024 M02/M06 A3030 RMK AO2 T10221061
Loading
Personal Weather Stations






























Interactive Weather Map New forecast layout! Learn more

10-Day Weather Forecast

Advertisements
Track Severe Weather on mobile